sensor_id;sensor_type;location;lat;lon;timestamp;P1;durP1;ratioP1;P2;durP2;ratioP2
9409;SDS011;4744;52.576;13.568;2024-03-07T00:00:27;90.38;;;25.95;;
9409;SDS011;4744;52.576;13.568;2024-03-07T00:02:54;100.57;;;27.58;;
9409;SDS011;4744;52.576;13.568;2024-03-07T00:05:21;96.25;;;27.17;;
9409;SDS011;4744;52.576;13.568;2024-03-07T00:07:50;94.15;;;27.73;;
9409;SDS011;4744;52.576;13.568;2024-03-07T00:10:17;87.80;;;26.33;;
9409;SDS011;4744;52.576;13.568;2024-03-07T00:12:48;91.90;;;26.75;;
9409;SDS011;4744;52.576;13.568;2024-03-07T00:15:15;88.38;;;26.13;;
9409;SDS011;4744;52.576;13.568;2024-03-07T00:17:42;96.72;;;28.02;;
9409;SDS011;4744;52.576;13.568;2024-03-07T00:20:10;87.65;;;26.10;;
9409;SDS011;4744;52.576;13.568;2024-03-07T00:22:40;85.82;;;26.13;;
9409;SDS011;4744;52.576;13.568;2024-03-07T00:25:09;86.65;;;27.60;;
9409;SDS011;4744;52.576;13.568;2024-03-07T00:27:40;100.72;;;25.25;;
9409;SDS011;4744;52.576;13.568;2024-03-07T00:30:10;93.85;;;26.02;;
9409;SDS011;4744;52.576;13.568;2024-03-07T00:32:39;91.28;;;25.83;;
9409;SDS011;4744;52.576;13.568;2024-03-07T00:35:06;99.40;;;26.65;;
9409;SDS011;4744;52.576;13.568;2024-03-07T00:37:35;91.78;;;29.23;;
9409;SDS011;4744;52.576;13.568;2024-03-07T00:40:05;89.35;;;26.25;;
9409;SDS011;4744;52.576;13.568;2024-03-07T00:42:35;94.85;;;25.77;;
9409;SDS011;4744;52.576;13.568;2024-03-07T00:45:02;99.43;;;27.50;;
9409;SDS011;4744;52.576;13.568;2024-03-07T00:47:29;89.78;;;27.25;;
9409;SDS011;4744;52.576;13.568;2024-03-07T00:49:57;96.85;;;27.92;;
9409;SDS011;4744;52.576;13.568;2024-03-07T00:52:24;99.22;;;28.80;;
9409;SDS011;4744;52.576;13.568;2024-03-07T00:54:51;101.85;;;27.52;;
9409;SDS011;4744;52.576;13.568;2024-03-07T00:57:18;106.72;;;27.58;;
9409;SDS011;4744;52.576;13.568;2024-03-07T00:59:47;91.93;;;27.15;;
9409;SDS011;4744;52.576;13.568;2024-03-07T01:02:14;80.47;;;26.52;;
9409;SDS011;4744;52.576;13.568;2024-03-07T01:04:42;90.53;;;25.73;;
9409;SDS011;4744;52.576;13.568;2024-03-07T01:07:09;92.10;;;25.65;;
9409;SDS011;4744;52.576;13.568;2024-03-07T01:09:36;89.65;;;26.55;;
9409;SDS011;4744;52.576;13.568;2024-03-07T01:12:03;95.30;;;26.92;;
9409;SDS011;4744;52.576;13.568;2024-03-07T01:14:30;87.75;;;25.63;;
9409;SDS011;4744;52.576;13.568;2024-03-07T01:16:59;85.25;;;26.77;;
9409;SDS011;4744;52.576;13.568;2024-03-07T01:19:26;77.18;;;25.30;;
9409;SDS011;4744;52.576;13.568;2024-03-07T01:21:53;83.25;;;27.52;;
9409;SDS011;4744;52.576;13.568;2024-03-07T01:24:20;87.50;;;25.95;;
9409;SDS011;4744;52.576;13.568;2024-03-07T01:26:47;85.63;;;26.00;;
9409;SDS011;4744;52.576;13.568;2024-03-07T01:29:18;85.80;;;25.25;;
9409;SDS011;4744;52.576;13.568;2024-03-07T01:31:45;77.03;;;26.23;;
9409;SDS011;4744;52.576;13.568;2024-03-07T01:34:15;82.22;;;25.00;;
9409;SDS011;4744;52.576;13.568;2024-03-07T01:36:42;89.82;;;25.42;;
9409;SDS011;4744;52.576;13.568;2024-03-07T01:39:09;76.15;;;25.27;;
9409;SDS011;4744;52.576;13.568;2024-03-07T01:41:37;83.07;;;26.38;;
9409;SDS011;4744;52.576;13.568;2024-03-07T01:44:05;79.05;;;23.17;;
9409;SDS011;4744;52.576;13.568;2024-03-07T01:46:32;68.03;;;24.77;;
9409;SDS011;4744;52.576;13.568;2024-03-07T01:48:59;68.07;;;25.38;;
9409;SDS011;4744;52.576;13.568;2024-03-07T01:51:28;87.57;;;26.17;;
9409;SDS011;4744;52.576;13.568;2024-03-07T01:53:55;77.82;;;25.33;;
9409;SDS011;4744;52.576;13.568;2024-03-07T01:56:23;91.03;;;25.10;;
9409;SDS011;4744;52.576;13.568;2024-03-07T01:58:50;91.55;;;27.27;;
9409;SDS011;4744;52.576;13.568;2024-03-07T02:01:18;67.93;;;23.17;;
9409;SDS011;4744;52.576;13.568;2024-03-07T02:03:45;81.95;;;25.55;;
9409;SDS011;4744;52.576;13.568;2024-03-07T02:06:12;91.00;;;27.65;;
9409;SDS011;4744;52.576;13.568;2024-03-07T02:08:41;84.85;;;27.27;;
9409;SDS011;4744;52.576;13.568;2024-03-07T02:11:08;73.38;;;25.70;;
9409;SDS011;4744;52.576;13.568;2024-03-07T02:13:35;88.60;;;28.08;;
9409;SDS011;4744;52.576;13.568;2024-03-07T02:16:03;82.10;;;27.33;;
9409;SDS011;4744;52.576;13.568;2024-03-07T02:18:30;91.30;;;27.30;;
9409;SDS011;4744;52.576;13.568;2024-03-07T02:20:58;85.55;;;27.15;;
9409;SDS011;4744;52.576;13.568;2024-03-07T02:23:26;77.70;;;28.23;;
9409;SDS011;4744;52.576;13.568;2024-03-07T02:25:53;78.75;;;26.08;;
9409;SDS011;4744;52.576;13.568;2024-03-07T02:28:20;89.00;;;28.17;;
9409;SDS011;4744;52.576;13.568;2024-03-07T02:30:47;85.78;;;27.27;;
9409;SDS011;4744;52.576;13.568;2024-03-07T02:33:14;83.00;;;27.40;;
9409;SDS011;4744;52.576;13.568;2024-03-07T02:35:41;83.88;;;28.75;;
9409;SDS011;4744;52.576;13.568;2024-03-07T02:38:09;72.30;;;24.35;;
9409;SDS011;4744;52.576;13.568;2024-03-07T02:40:36;79.25;;;27.27;;
9409;SDS011;4744;52.576;13.568;2024-03-07T02:43:03;86.25;;;28.77;;
9409;SDS011;4744;52.576;13.568;2024-03-07T02:45:32;95.50;;;27.70;;
9409;SDS011;4744;52.576;13.568;2024-03-07T02:47:59;84.00;;;28.02;;
9409;SDS011;4744;52.576;13.568;2024-03-07T02:50:26;71.85;;;26.55;;
9409;SDS011;4744;52.576;13.568;2024-03-07T02:52:53;77.95;;;27.17;;
9409;SDS011;4744;52.576;13.568;2024-03-07T02:55:21;78.97;;;27.90;;
9409;SDS011;4744;52.576;13.568;2024-03-07T02:57:48;84.13;;;26.58;;
9409;SDS011;4744;52.576;13.568;2024-03-07T03:00:15;83.60;;;28.05;;
9409;SDS011;4744;52.576;13.568;2024-03-07T03:02:51;74.95;;;25.20;;
9409;SDS011;4744;52.576;13.568;2024-03-07T03:05:19;74.78;;;26.42;;
9409;SDS011;4744;52.576;13.568;2024-03-07T03:07:46;72.20;;;25.33;;
9409;SDS011;4744;52.576;13.568;2024-03-07T03:10:19;88.28;;;25.40;;
9409;SDS011;4744;52.576;13.568;2024-03-07T03:12:51;68.65;;;27.17;;
9409;SDS011;4744;52.576;13.568;2024-03-07T03:15:19;70.05;;;26.15;;
9409;SDS011;4744;52.576;13.568;2024-03-07T03:17:47;73.32;;;25.83;;
9409;SDS011;4744;52.576;13.568;2024-03-07T03:20:14;68.53;;;25.58;;
9409;SDS011;4744;52.576;13.568;2024-03-07T03:22:49;67.15;;;25.30;;
9409;SDS011;4744;52.576;13.568;2024-03-07T03:25:17;64.70;;;24.58;;
9409;SDS011;4744;52.576;13.568;2024-03-07T03:27:46;58.25;;;23.38;;
9409;SDS011;4744;52.576;13.568;2024-03-07T03:30:13;65.25;;;24.23;;
9409;SDS011;4744;52.576;13.568;2024-03-07T03:32:43;63.10;;;23.75;;
9409;SDS011;4744;52.576;13.568;2024-03-07T03:35:11;60.20;;;23.08;;
9409;SDS011;4744;52.576;13.568;2024-03-07T03:37:39;64.20;;;22.98;;
9409;SDS011;4744;52.576;13.568;2024-03-07T03:40:07;59.35;;;22.90;;
9409;SDS011;4744;52.576;13.568;2024-03-07T03:42:35;57.05;;;21.60;;
9409;SDS011;4744;52.576;13.568;2024-03-07T03:45:05;62.63;;;22.52;;
9409;SDS011;4744;52.576;13.568;2024-03-07T03:47:33;51.85;;;21.80;;
9409;SDS011;4744;52.576;13.568;2024-03-07T03:50:01;60.38;;;23.42;;
9409;SDS011;4744;52.576;13.568;2024-03-07T03:52:29;58.00;;;23.23;;
9409;SDS011;4744;52.576;13.568;2024-03-07T03:54:56;54.33;;;20.77;;
9409;SDS011;4744;52.576;13.568;2024-03-07T03:57:23;55.92;;;21.23;;
9409;SDS011;4744;52.576;13.568;2024-03-07T03:59:50;53.58;;;20.67;;
9409;SDS011;4744;52.576;13.568;2024-03-07T04:02:19;49.50;;;20.17;;
9409;SDS011;4744;52.576;13.568;2024-03-07T04:04:46;49.63;;;21.75;;
9409;SDS011;4744;52.576;13.568;2024-03-07T04:07:13;50.08;;;21.42;;
9409;SDS011;4744;52.576;13.568;2024-03-07T04:09:41;55.28;;;21.48;;
9409;SDS011;4744;52.576;13.568;2024-03-07T04:12:08;57.45;;;20.40;;
9409;SDS011;4744;52.576;13.568;2024-03-07T04:14:36;48.13;;;21.58;;
9409;SDS011;4744;52.576;13.568;2024-03-07T04:17:03;49.17;;;20.88;;
9409;SDS011;4744;52.576;13.568;2024-03-07T04:22:00;51.90;;;20.35;;
9409;SDS011;4744;52.576;13.568;2024-03-07T04:24:28;56.28;;;22.25;;
9409;SDS011;4744;52.576;13.568;2024-03-07T04:26:56;47.20;;;20.33;;
9409;SDS011;4744;52.576;13.568;2024-03-07T04:29:23;56.67;;;23.60;;
9409;SDS011;4744;52.576;13.568;2024-03-07T04:31:50;48.38;;;19.80;;
9409;SDS011;4744;52.576;13.568;2024-03-07T04:34:17;55.83;;;22.42;;
9409;SDS011;4744;52.576;13.568;2024-03-07T04:36:44;54.10;;;20.65;;
9409;SDS011;4744;52.576;13.568;2024-03-07T04:39:13;46.50;;;21.45;;
9409;SDS011;4744;52.576;13.568;2024-03-07T04:41:49;48.40;;;21.00;;
9409;SDS011;4744;52.576;13.568;2024-03-07T04:44:17;47.53;;;21.27;;
9409;SDS011;4744;52.576;13.568;2024-03-07T04:46:47;51.58;;;21.48;;
9409;SDS011;4744;52.576;13.568;2024-03-07T04:49:14;49.40;;;21.85;;
9409;SDS011;4744;52.576;13.568;2024-03-07T04:51:41;45.05;;;21.05;;
9409;SDS011;4744;52.576;13.568;2024-03-07T04:54:08;51.70;;;23.30;;
9409;SDS011;4744;52.576;13.568;2024-03-07T04:56:36;43.92;;;21.77;;
9409;SDS011;4744;52.576;13.568;2024-03-07T04:59:04;43.80;;;19.48;;
9409;SDS011;4744;52.576;13.568;2024-03-07T05:01:31;44.30;;;19.10;;
9409;SDS011;4744;52.576;13.568;2024-03-07T05:03:58;53.30;;;21.35;;
9409;SDS011;4744;52.576;13.568;2024-03-07T05:06:25;44.67;;;20.45;;
9409;SDS011;4744;52.576;13.568;2024-03-07T05:08:53;46.25;;;21.23;;
9409;SDS011;4744;52.576;13.568;2024-03-07T05:11:21;48.88;;;20.60;;
9409;SDS011;4744;52.576;13.568;2024-03-07T05:13:49;48.08;;;20.02;;
9409;SDS011;4744;52.576;13.568;2024-03-07T05:16:16;46.97;;;20.30;;
9409;SDS011;4744;52.576;13.568;2024-03-07T05:18:44;51.53;;;20.65;;
9409;SDS011;4744;52.576;13.568;2024-03-07T05:21:12;44.97;;;20.23;;
9409;SDS011;4744;52.576;13.568;2024-03-07T05:23:56;53.30;;;21.33;;
9409;SDS011;4744;52.576;13.568;2024-03-07T05:26:23;50.05;;;20.75;;
9409;SDS011;4744;52.576;13.568;2024-03-07T05:28:52;42.15;;;20.25;;
9409;SDS011;4744;52.576;13.568;2024-03-07T05:31:20;45.88;;;20.40;;
9409;SDS011;4744;52.576;13.568;2024-03-07T05:33:47;47.15;;;21.17;;
9409;SDS011;4744;52.576;13.568;2024-03-07T05:36:14;49.80;;;22.40;;
9409;SDS011;4744;52.576;13.568;2024-03-07T05:38:40;56.53;;;22.67;;
9409;SDS011;4744;52.576;13.568;2024-03-07T05:41:09;46.50;;;21.10;;
9409;SDS011;4744;52.576;13.568;2024-03-07T05:43:37;52.53;;;20.83;;
9409;SDS011;4744;52.576;13.568;2024-03-07T05:46:05;50.53;;;20.23;;
9409;SDS011;4744;52.576;13.568;2024-03-07T05:48:35;44.97;;;20.02;;
9409;SDS011;4744;52.576;13.568;2024-03-07T05:51:02;46.50;;;20.10;;
9409;SDS011;4744;52.576;13.568;2024-03-07T05:53:29;48.10;;;20.08;;
9409;SDS011;4744;52.576;13.568;2024-03-07T05:55:56;49.38;;;19.70;;
9409;SDS011;4744;52.576;13.568;2024-03-07T05:58:23;51.85;;;20.83;;
9409;SDS011;4744;52.576;13.568;2024-03-07T06:00:50;47.70;;;20.02;;
9409;SDS011;4744;52.576;13.568;2024-03-07T06:03:18;45.47;;;19.55;;
9409;SDS011;4744;52.576;13.568;2024-03-07T06:05:45;40.45;;;18.83;;
9409;SDS011;4744;52.576;13.568;2024-03-07T06:08:14;45.20;;;19.58;;
9409;SDS011;4744;52.576;13.568;2024-03-07T06:10:42;45.35;;;18.15;;
9409;SDS011;4744;52.576;13.568;2024-03-07T06:13:10;46.92;;;19.35;;
9409;SDS011;4744;52.576;13.568;2024-03-07T06:15:37;45.38;;;19.05;;
9409;SDS011;4744;52.576;13.568;2024-03-07T06:18:05;46.55;;;18.88;;
9409;SDS011;4744;52.576;13.568;2024-03-07T06:20:34;40.22;;;19.25;;
9409;SDS011;4744;52.576;13.568;2024-03-07T06:23:01;40.53;;;19.95;;
9409;SDS011;4744;52.576;13.568;2024-03-07T06:25:30;42.13;;;18.42;;
9409;SDS011;4744;52.576;13.568;2024-03-07T06:28:02;39.50;;;17.65;;
9409;SDS011;4744;52.576;13.568;2024-03-07T06:30:36;38.53;;;19.05;;
9409;SDS011;4744;52.576;13.568;2024-03-07T06:33:04;41.70;;;17.48;;
9409;SDS011;4744;52.576;13.568;2024-03-07T06:35:31;41.45;;;17.83;;
9409;SDS011;4744;52.576;13.568;2024-03-07T06:38:09;43.75;;;17.50;;
9409;SDS011;4744;52.576;13.568;2024-03-07T06:40:36;38.42;;;16.85;;
9409;SDS011;4744;52.576;13.568;2024-03-07T06:43:05;41.33;;;17.73;;
9409;SDS011;4744;52.576;13.568;2024-03-07T06:45:32;36.03;;;16.30;;
9409;SDS011;4744;52.576;13.568;2024-03-07T06:48:00;38.83;;;17.30;;
9409;SDS011;4744;52.576;13.568;2024-03-07T06:50:27;36.55;;;16.80;;
9409;SDS011;4744;52.576;13.568;2024-03-07T06:52:54;38.28;;;17.35;;
9409;SDS011;4744;52.576;13.568;2024-03-07T06:55:23;40.00;;;16.85;;
9409;SDS011;4744;52.576;13.568;2024-03-07T06:57:49;34.13;;;14.55;;
9409;SDS011;4744;52.576;13.568;2024-03-07T07:00:16;32.70;;;15.00;;
9409;SDS011;4744;52.576;13.568;2024-03-07T07:02:45;33.83;;;14.43;;
9409;SDS011;4744;52.576;13.568;2024-03-07T07:05:12;29.80;;;14.63;;
9409;SDS011;4744;52.576;13.568;2024-03-07T07:07:43;30.23;;;14.23;;
9409;SDS011;4744;52.576;13.568;2024-03-07T07:10:10;30.40;;;14.00;;
9409;SDS011;4744;52.576;13.568;2024-03-07T07:12:42;27.40;;;14.15;;
9409;SDS011;4744;52.576;13.568;2024-03-07T07:15:10;27.92;;;14.98;;
9409;SDS011;4744;52.576;13.568;2024-03-07T07:17:37;31.92;;;13.85;;
9409;SDS011;4744;52.576;13.568;2024-03-07T07:20:05;30.73;;;14.55;;
9409;SDS011;4744;52.576;13.568;2024-03-07T07:22:35;34.45;;;14.80;;
9409;SDS011;4744;52.576;13.568;2024-03-07T07:25:03;29.73;;;14.63;;
9409;SDS011;4744;52.576;13.568;2024-03-07T07:27:31;29.88;;;13.68;;
9409;SDS011;4744;52.576;13.568;2024-03-07T07:30:00;29.95;;;14.05;;
9409;SDS011;4744;52.576;13.568;2024-03-07T07:32:27;26.35;;;12.90;;
9409;SDS011;4744;52.576;13.568;2024-03-07T07:34:54;27.60;;;13.93;;
9409;SDS011;4744;52.576;13.568;2024-03-07T07:37:21;25.55;;;12.25;;
9409;SDS011;4744;52.576;13.568;2024-03-07T07:39:48;28.10;;;13.02;;
9409;SDS011;4744;52.576;13.568;2024-03-07T07:42:15;26.48;;;12.38;;
9409;SDS011;4744;52.576;13.568;2024-03-07T07:44:42;29.55;;;12.75;;
9409;SDS011;4744;52.576;13.568;2024-03-07T07:47:11;25.92;;;12.00;;
9409;SDS011;4744;52.576;13.568;2024-03-07T07:49:38;27.23;;;13.52;;
9409;SDS011;4744;52.576;13.568;2024-03-07T07:52:05;23.70;;;12.13;;
9409;SDS011;4744;52.576;13.568;2024-03-07T07:54:33;25.20;;;11.65;;
9409;SDS011;4744;52.576;13.568;2024-03-07T07:57:00;23.95;;;10.50;;
9409;SDS011;4744;52.576;13.568;2024-03-07T07:59:27;23.98;;;11.20;;
9409;SDS011;4744;52.576;13.568;2024-03-07T08:01:56;21.00;;;10.88;;
9409;SDS011;4744;52.576;13.568;2024-03-07T08:04:24;20.98;;;11.18;;
9409;SDS011;4744;52.576;13.568;2024-03-07T08:06:51;23.00;;;12.23;;
9409;SDS011;4744;52.576;13.568;2024-03-07T08:09:19;26.80;;;11.57;;
9409;SDS011;4744;52.576;13.568;2024-03-07T08:11:46;22.17;;;11.40;;
9409;SDS011;4744;52.576;13.568;2024-03-07T08:14:15;22.10;;;11.60;;
9409;SDS011;4744;52.576;13.568;2024-03-07T08:16:43;23.23;;;10.98;;
9409;SDS011;4744;52.576;13.568;2024-03-07T08:19:14;19.13;;;11.13;;
9409;SDS011;4744;52.576;13.568;2024-03-07T08:21:42;22.67;;;10.85;;
9409;SDS011;4744;52.576;13.568;2024-03-07T08:24:09;22.73;;;10.75;;
9409;SDS011;4744;52.576;13.568;2024-03-07T08:26:36;23.13;;;11.23;;
9409;SDS011;4744;52.576;13.568;2024-03-07T08:29:09;22.48;;;11.93;;
9409;SDS011;4744;52.576;13.568;2024-03-07T08:31:36;24.05;;;12.23;;
9409;SDS011;4744;52.576;13.568;2024-03-07T08:34:04;20.35;;;11.15;;
9409;SDS011;4744;52.576;13.568;2024-03-07T08:36:30;22.63;;;10.85;;
9409;SDS011;4744;52.576;13.568;2024-03-07T08:38:59;23.33;;;11.77;;
9409;SDS011;4744;52.576;13.568;2024-03-07T08:41:26;23.50;;;11.70;;
9409;SDS011;4744;52.576;13.568;2024-03-07T08:43:52;20.05;;;10.38;;
9409;SDS011;4744;52.576;13.568;2024-03-07T08:46:19;23.70;;;10.73;;
9409;SDS011;4744;52.576;13.568;2024-03-07T08:48:46;22.83;;;11.00;;
9409;SDS011;4744;52.576;13.568;2024-03-07T08:51:14;16.52;;;9.45;;
9409;SDS011;4744;52.576;13.568;2024-03-07T08:53:42;22.45;;;11.75;;
9409;SDS011;4744;52.576;13.568;2024-03-07T08:56:11;19.95;;;10.73;;
9409;SDS011;4744;52.576;13.568;2024-03-07T08:58:38;17.60;;;9.27;;
9409;SDS011;4744;52.576;13.568;2024-03-07T09:01:04;20.70;;;9.45;;
9409;SDS011;4744;52.576;13.568;2024-03-07T09:03:31;19.77;;;9.88;;
9409;SDS011;4744;52.576;13.568;2024-03-07T09:05:58;20.08;;;9.77;;
9409;SDS011;4744;52.576;13.568;2024-03-07T09:08:25;19.42;;;9.88;;
9409;SDS011;4744;52.576;13.568;2024-03-07T09:10:52;17.25;;;10.27;;
9409;SDS011;4744;52.576;13.568;2024-03-07T09:13:21;21.23;;;10.45;;
9409;SDS011;4744;52.576;13.568;2024-03-07T09:15:48;21.17;;;9.50;;
9409;SDS011;4744;52.576;13.568;2024-03-07T09:18:15;18.80;;;9.63;;
9409;SDS011;4744;52.576;13.568;2024-03-07T09:20:42;15.45;;;9.02;;
9409;SDS011;4744;52.576;13.568;2024-03-07T09:23:09;15.35;;;8.77;;
9409;SDS011;4744;52.576;13.568;2024-03-07T09:25:36;16.98;;;10.15;;
9409;SDS011;4744;52.576;13.568;2024-03-07T09:28:05;17.30;;;9.40;;
9409;SDS011;4744;52.576;13.568;2024-03-07T09:30:33;17.17;;;8.82;;
9409;SDS011;4744;52.576;13.568;2024-03-07T09:33:03;16.77;;;8.55;;
9409;SDS011;4744;52.576;13.568;2024-03-07T09:35:30;14.95;;;8.57;;
9409;SDS011;4744;52.576;13.568;2024-03-07T09:37:58;14.13;;;8.18;;
9409;SDS011;4744;52.576;13.568;2024-03-07T09:40:25;17.17;;;9.10;;
9409;SDS011;4744;52.576;13.568;2024-03-07T09:42:52;18.25;;;9.10;;
9409;SDS011;4744;52.576;13.568;2024-03-07T09:47:50;20.27;;;9.00;;
9409;SDS011;4744;52.576;13.568;2024-03-07T09:50:19;14.65;;;7.97;;
9409;SDS011;4744;52.576;13.568;2024-03-07T09:52:48;19.80;;;9.32;;
9409;SDS011;4744;52.576;13.568;2024-03-07T09:57:45;14.82;;;7.90;;
9409;SDS011;4744;52.576;13.568;2024-03-07T10:00:13;17.15;;;8.20;;
9409;SDS011;4744;52.576;13.568;2024-03-07T10:02:49;22.02;;;8.93;;
9409;SDS011;4744;52.576;13.568;2024-03-07T10:05:19;17.02;;;8.93;;
9409;SDS011;4744;52.576;13.568;2024-03-07T10:07:52;13.40;;;7.72;;
9409;SDS011;4744;52.576;13.568;2024-03-07T10:10:19;13.70;;;6.95;;
9409;SDS011;4744;52.576;13.568;2024-03-07T10:12:47;15.70;;;8.43;;
9409;SDS011;4744;52.576;13.568;2024-03-07T10:15:14;14.77;;;7.53;;
9409;SDS011;4744;52.576;13.568;2024-03-07T10:17:42;13.70;;;8.45;;
9409;SDS011;4744;52.576;13.568;2024-03-07T10:22:45;14.35;;;7.82;;
9409;SDS011;4744;52.576;13.568;2024-03-07T10:25:11;14.02;;;8.63;;
9409;SDS011;4744;52.576;13.568;2024-03-07T10:27:39;13.88;;;8.15;;
9409;SDS011;4744;52.576;13.568;2024-03-07T10:30:07;15.77;;;7.90;;
9409;SDS011;4744;52.576;13.568;2024-03-07T10:32:34;13.68;;;8.02;;
9409;SDS011;4744;52.576;13.568;2024-03-07T10:35:02;16.45;;;8.15;;
9409;SDS011;4744;52.576;13.568;2024-03-07T10:37:33;16.83;;;8.32;;
9409;SDS011;4744;52.576;13.568;2024-03-07T10:40:02;16.73;;;8.25;;
9409;SDS011;4744;52.576;13.568;2024-03-07T10:42:40;13.70;;;8.55;;
9409;SDS011;4744;52.576;13.568;2024-03-07T10:45:17;14.57;;;8.23;;
9409;SDS011;4744;52.576;13.568;2024-03-07T10:47:47;12.77;;;7.20;;
9409;SDS011;4744;52.576;13.568;2024-03-07T10:50:20;17.38;;;7.82;;
9409;SDS011;4744;52.576;13.568;2024-03-07T10:52:58;14.23;;;7.65;;
9409;SDS011;4744;52.576;13.568;2024-03-07T10:55:30;13.35;;;7.95;;
9409;SDS011;4744;52.576;13.568;2024-03-07T10:58:05;15.07;;;8.38;;
9409;SDS011;4744;52.576;13.568;2024-03-07T11:00:40;15.45;;;8.25;;
9409;SDS011;4744;52.576;13.568;2024-03-07T11:03:10;13.15;;;7.18;;
9409;SDS011;4744;52.576;13.568;2024-03-07T11:05:39;16.38;;;7.90;;
9409;SDS011;4744;52.576;13.568;2024-03-07T11:08:08;16.33;;;8.50;;
9409;SDS011;4744;52.576;13.568;2024-03-07T11:10:39;18.58;;;7.72;;
9409;SDS011;4744;52.576;13.568;2024-03-07T11:15:35;15.98;;;7.35;;
9409;SDS011;4744;52.576;13.568;2024-03-07T11:18:04;13.40;;;7.63;;
9409;SDS011;4744;52.576;13.568;2024-03-07T11:20:36;13.48;;;7.90;;
9409;SDS011;4744;52.576;13.568;2024-03-07T11:23:26;17.67;;;8.90;;
9409;SDS011;4744;52.576;13.568;2024-03-07T11:26:03;15.43;;;9.32;;
9409;SDS011;4744;52.576;13.568;2024-03-07T11:28:32;13.30;;;8.18;;
9409;SDS011;4744;52.576;13.568;2024-03-07T11:31:15;13.90;;;8.70;;
9409;SDS011;4744;52.576;13.568;2024-03-07T11:36:43;17.70;;;9.23;;
9409;SDS011;4744;52.576;13.568;2024-03-07T11:42:09;13.55;;;8.13;;
9409;SDS011;4744;52.576;13.568;2024-03-07T11:44:45;16.98;;;9.10;;
9409;SDS011;4744;52.576;13.568;2024-03-07T11:47:12;17.75;;;9.65;;
9409;SDS011;4744;52.576;13.568;2024-03-07T11:49:40;16.73;;;9.27;;
9409;SDS011;4744;52.576;13.568;2024-03-07T11:52:06;16.92;;;9.02;;
9409;SDS011;4744;52.576;13.568;2024-03-07T11:54:36;14.90;;;8.43;;
9409;SDS011;4744;52.576;13.568;2024-03-07T11:57:05;22.55;;;9.77;;
9409;SDS011;4744;52.576;13.568;2024-03-07T11:59:39;18.02;;;9.88;;
9409;SDS011;4744;52.576;13.568;2024-03-07T12:02:10;14.65;;;8.48;;
9409;SDS011;4744;52.576;13.568;2024-03-07T12:04:39;15.38;;;8.88;;
9409;SDS011;4744;52.576;13.568;2024-03-07T12:07:06;15.77;;;9.52;;
9409;SDS011;4744;52.576;13.568;2024-03-07T12:12:03;16.73;;;8.77;;
9409;SDS011;4744;52.576;13.568;2024-03-07T12:14:30;14.95;;;9.23;;
9409;SDS011;4744;52.576;13.568;2024-03-07T12:17:00;17.33;;;9.35;;
9409;SDS011;4744;52.576;13.568;2024-03-07T12:19:29;16.92;;;9.25;;
9409;SDS011;4744;52.576;13.568;2024-03-07T12:21:59;16.05;;;9.20;;
9409;SDS011;4744;52.576;13.568;2024-03-07T12:24:26;17.80;;;8.48;;
9409;SDS011;4744;52.576;13.568;2024-03-07T12:27:03;16.52;;;8.93;;
9409;SDS011;4744;52.576;13.568;2024-03-07T12:29:31;18.63;;;10.48;;
9409;SDS011;4744;52.576;13.568;2024-03-07T12:31:59;16.55;;;9.55;;
9409;SDS011;4744;52.576;13.568;2024-03-07T12:34:27;16.85;;;9.70;;
9409;SDS011;4744;52.576;13.568;2024-03-07T12:36:55;18.83;;;10.65;;
9409;SDS011;4744;52.576;13.568;2024-03-07T12:39:23;20.50;;;10.20;;
9409;SDS011;4744;52.576;13.568;2024-03-07T12:41:58;17.83;;;9.48;;
9409;SDS011;4744;52.576;13.568;2024-03-07T12:44:25;17.42;;;9.43;;
9409;SDS011;4744;52.576;13.568;2024-03-07T12:46:52;18.15;;;9.65;;
9409;SDS011;4744;52.576;13.568;2024-03-07T12:49:22;18.63;;;9.65;;
9409;SDS011;4744;52.576;13.568;2024-03-07T12:51:52;20.85;;;9.77;;
9409;SDS011;4744;52.576;13.568;2024-03-07T12:54:19;16.60;;;9.43;;
9409;SDS011;4744;52.576;13.568;2024-03-07T12:56:47;15.75;;;8.43;;
9409;SDS011;4744;52.576;13.568;2024-03-07T12:59:15;18.13;;;9.82;;
9409;SDS011;4744;52.576;13.568;2024-03-07T13:01:44;17.15;;;9.52;;
9409;SDS011;4744;52.576;13.568;2024-03-07T13:04:12;16.48;;;8.68;;
9409;SDS011;4744;52.576;13.568;2024-03-07T13:06:42;16.25;;;9.35;;
9409;SDS011;4744;52.576;13.568;2024-03-07T13:09:11;17.15;;;9.55;;
9409;SDS011;4744;52.576;13.568;2024-03-07T13:11:38;17.55;;;9.95;;
9409;SDS011;4744;52.576;13.568;2024-03-07T13:14:07;16.75;;;9.45;;
9409;SDS011;4744;52.576;13.568;2024-03-07T13:16:35;18.77;;;10.07;;
9409;SDS011;4744;52.576;13.568;2024-03-07T13:19:01;17.02;;;8.95;;
9409;SDS011;4744;52.576;13.568;2024-03-07T13:21:30;18.50;;;10.60;;
9409;SDS011;4744;52.576;13.568;2024-03-07T13:23:58;17.33;;;9.80;;
9409;SDS011;4744;52.576;13.568;2024-03-07T13:26:26;16.02;;;10.07;;
9409;SDS011;4744;52.576;13.568;2024-03-07T13:28:55;17.80;;;10.48;;
9409;SDS011;4744;52.576;13.568;2024-03-07T13:31:26;18.33;;;10.52;;
9409;SDS011;4744;52.576;13.568;2024-03-07T13:33:53;21.08;;;9.93;;
9409;SDS011;4744;52.576;13.568;2024-03-07T13:36:20;16.83;;;9.38;;
9409;SDS011;4744;52.576;13.568;2024-03-07T13:38:50;17.67;;;9.48;;
9409;SDS011;4744;52.576;13.568;2024-03-07T13:41:19;18.75;;;10.43;;
9409;SDS011;4744;52.576;13.568;2024-03-07T13:46:13;19.33;;;10.23;;
9409;SDS011;4744;52.576;13.568;2024-03-07T13:48:43;17.23;;;10.20;;
9409;SDS011;4744;52.576;13.568;2024-03-07T13:51:11;16.85;;;9.52;;
9409;SDS011;4744;52.576;13.568;2024-03-07T13:53:40;17.55;;;10.55;;
9409;SDS011;4744;52.576;13.568;2024-03-07T13:56:34;20.67;;;10.02;;
9409;SDS011;4744;52.576;13.568;2024-03-07T13:59:16;18.58;;;9.93;;
9409;SDS011;4744;52.576;13.568;2024-03-07T14:02:00;16.88;;;9.40;;
9409;SDS011;4744;52.576;13.568;2024-03-07T14:07:57;17.67;;;9.77;;
9409;SDS011;4744;52.576;13.568;2024-03-07T14:13:52;15.15;;;8.10;;
9409;SDS011;4744;52.576;13.568;2024-03-07T14:16:40;17.25;;;9.48;;
9409;SDS011;4744;52.576;13.568;2024-03-07T14:22:30;18.45;;;8.60;;
9409;SDS011;4744;52.576;13.568;2024-03-07T14:28:19;16.35;;;8.63;;
9409;SDS011;4744;52.576;13.568;2024-03-07T14:31:12;13.98;;;7.85;;
9409;SDS011;4744;52.576;13.568;2024-03-07T14:33:47;16.35;;;8.65;;
9409;SDS011;4744;52.576;13.568;2024-03-07T14:36:23;16.88;;;8.43;;
9409;SDS011;4744;52.576;13.568;2024-03-07T14:39:02;14.65;;;7.70;;
9409;SDS011;4744;52.576;13.568;2024-03-07T14:44:14;14.35;;;7.47;;
9409;SDS011;4744;52.576;13.568;2024-03-07T14:46:45;14.93;;;8.90;;
9409;SDS011;4744;52.576;13.568;2024-03-07T14:49:16;14.10;;;8.25;;
9409;SDS011;4744;52.576;13.568;2024-03-07T14:51:44;15.15;;;8.10;;
9409;SDS011;4744;52.576;13.568;2024-03-07T14:54:14;17.83;;;9.07;;
9409;SDS011;4744;52.576;13.568;2024-03-07T14:56:41;17.05;;;8.75;;
9409;SDS011;4744;52.576;13.568;2024-03-07T14:59:08;14.30;;;7.40;;
9409;SDS011;4744;52.576;13.568;2024-03-07T15:01:35;15.35;;;7.82;;
9409;SDS011;4744;52.576;13.568;2024-03-07T15:04:04;15.25;;;7.55;;
9409;SDS011;4744;52.576;13.568;2024-03-07T15:06:35;17.80;;;8.40;;
9409;SDS011;4744;52.576;13.568;2024-03-07T15:09:02;16.92;;;8.02;;
9409;SDS011;4744;52.576;13.568;2024-03-07T15:11:35;17.42;;;9.55;;
9409;SDS011;4744;52.576;13.568;2024-03-07T15:14:05;15.43;;;7.82;;
9409;SDS011;4744;52.576;13.568;2024-03-07T15:16:33;16.10;;;9.02;;
9409;SDS011;4744;52.576;13.568;2024-03-07T15:19:04;14.18;;;7.93;;
9409;SDS011;4744;52.576;13.568;2024-03-07T15:21:32;14.52;;;7.80;;
9409;SDS011;4744;52.576;13.568;2024-03-07T15:23:59;12.32;;;7.70;;
9409;SDS011;4744;52.576;13.568;2024-03-07T15:26:26;14.73;;;8.25;;